sensor_id;sensor_type;location;lat;lon;timestamp;pressure;altitude;pressure_sealevel;temperature;humidity
44198;BME280;30157;55.512;37.764;2022-12-05T00:02:20;102852.19;;;-14.87;78.91
44198;BME280;30157;55.512;37.764;2022-12-05T00:04:46;102981.84;;;-14.12;79.67
44198;BME280;30157;55.512;37.764;2022-12-05T00:07:12;102983.63;;;-14.11;79.72
44198;BME280;30157;55.512;37.764;2022-12-05T00:09:38;102988.22;;;-14.20;79.88
44198;BME280;30157;55.512;37.764;2022-12-05T00:12:03;102985.50;;;-14.15;79.83
44198;BME280;30157;55.512;37.764;2022-12-05T00:14:29;102868.91;;;-14.75;79.76
44198;BME280;30157;55.512;37.764;2022-12-05T00:16:55;102972.13;;;-14.16;79.49
44198;BME280;30157;55.512;37.764;2022-12-05T00:19:21;102868.03;;;-14.75;79.91
44198;BME280;30157;55.512;37.764;2022-12-05T00:21:49;102951.69;;;-14.19;79.20
44198;BME280;30157;55.512;37.764;2022-12-05T00:24:15;102972.97;;;-14.10;79.14
44198;BME280;30157;55.512;37.764;2022-12-05T00:26:41;102928.41;;;-14.42;79.30
44198;BME280;30157;55.512;37.764;2022-12-05T00:29:07;102967.34;;;-14.26;79.52
44198;BME280;30157;55.512;37.764;2022-12-05T00:31:33;102961.91;;;-14.23;79.89
44198;BME280;30157;55.512;37.764;2022-12-05T00:34:00;102965.34;;;-14.34;79.69
44198;BME280;30157;55.512;37.764;2022-12-05T00:36:29;102910.56;;;-14.62;79.84
44198;BME280;30157;55.512;37.764;2022-12-05T00:38:55;102954.91;;;-14.31;79.58
44198;BME280;30157;55.512;37.764;2022-12-05T00:41:24;102921.84;;;-14.47;79.37
44198;BME280;30157;55.512;37.764;2022-12-05T00:43:52;102949.94;;;-14.37;79.87
44198;BME280;30157;55.512;37.764;2022-12-05T00:46:20;102925.50;;;-14.57;79.96
44198;BME280;30157;55.512;37.764;2022-12-05T00:48:46;102945.84;;;-14.37;79.72
44198;BME280;30157;55.512;37.764;2022-12-05T00:51:21;102930.97;;;-14.54;80.46
44198;BME280;30157;55.512;37.764;2022-12-05T00:53:47;102949.03;;;-14.43;79.87
44198;BME280;30157;55.512;37.764;2022-12-05T00:56:19;102945.91;;;-14.48;80.01
44198;BME280;30157;55.512;37.764;2022-12-05T00:58:45;102938.38;;;-14.42;79.76
44198;BME280;30157;55.512;37.764;2022-12-05T01:01:13;102911.69;;;-14.55;80.12
44198;BME280;30157;55.512;37.764;2022-12-05T01:03:40;102935.50;;;-14.51;79.83
44198;BME280;30157;55.512;37.764;2022-12-05T01:06:06;102807.22;;;-15.34;79.66
44198;BME280;30157;55.512;37.764;2022-12-05T01:08:33;102954.97;;;-14.48;80.25
44198;BME280;30157;55.512;37.764;2022-12-05T01:11:00;102952.47;;;-14.48;80.44
44198;BME280;30157;55.512;37.764;2022-12-05T01:13:26;102937.75;;;-14.58;80.15
44198;BME280;30157;55.512;37.764;2022-12-05T01:15:52;102907.22;;;-14.74;80.26
44198;BME280;30157;55.512;37.764;2022-12-05T01:18:20;102931.88;;;-14.59;80.16
44198;BME280;30157;55.512;37.764;2022-12-05T01:20:46;102942.03;;;-14.51;80.33
44198;BME280;30157;55.512;37.764;2022-12-05T01:23:12;102939.13;;;-14.55;79.92
44198;BME280;30157;55.512;37.764;2022-12-05T01:25:43;102930.06;;;-14.60;80.51
44198;BME280;30157;55.512;37.764;2022-12-05T01:28:09;102929.38;;;-14.59;80.25
44198;BME280;30157;55.512;37.764;2022-12-05T01:30:40;102918.03;;;-14.62;79.86
44198;BME280;30157;55.512;37.764;2022-12-05T01:33:06;102897.00;;;-14.70;80.01
44198;BME280;30157;55.512;37.764;2022-12-05T01:35:33;102913.28;;;-14.61;80.38
44198;BME280;30157;55.512;37.764;2022-12-05T01:38:00;102886.56;;;-14.67;80.35
44198;BME280;30157;55.512;37.764;2022-12-05T01:40:26;102920.50;;;-14.57;80.58
44198;BME280;30157;55.512;37.764;2022-12-05T01:42:52;102869.19;;;-14.84;80.52
44198;BME280;30157;55.512;37.764;2022-12-05T01:45:24;102908.50;;;-14.59;80.17
44198;BME280;30157;55.512;37.764;2022-12-05T01:47:53;102833.63;;;-14.95;80.19
44198;BME280;30157;55.512;37.764;2022-12-05T01:50:19;102816.41;;;-14.99;80.25
44198;BME280;30157;55.512;37.764;2022-12-05T01:52:44;102879.75;;;-14.68;80.63
44198;BME280;30157;55.512;37.764;2022-12-05T01:55:13;102897.63;;;-14.60;80.08
44198;BME280;30157;55.512;37.764;2022-12-05T01:57:40;102900.41;;;-14.69;80.27
44198;BME280;30157;55.512;37.764;2022-12-05T02:00:12;102821.88;;;-15.07;80.08
44198;BME280;30157;55.512;37.764;2022-12-05T02:02:43;102889.53;;;-14.70;80.00
44198;BME280;30157;55.512;37.764;2022-12-05T02:05:17;102901.78;;;-14.72;79.99
44198;BME280;30157;55.512;37.764;2022-12-05T02:07:45;102854.47;;;-14.89;80.20
44198;BME280;30157;55.512;37.764;2022-12-05T02:10:11;102897.00;;;-14.64;79.52
44198;BME280;30157;55.512;37.764;2022-12-05T02:12:38;102893.09;;;-14.62;79.52
44198;BME280;30157;55.512;37.764;2022-12-05T02:20:41;102900.19;;;-14.71;79.63
44198;BME280;30157;55.512;37.764;2022-12-05T02:23:41;102895.22;;;-14.71;79.68
44198;BME280;30157;55.512;37.764;2022-12-05T02:26:29;102895.00;;;-14.84;79.65
44198;BME280;30157;55.512;37.764;2022-12-05T02:29:20;102894.09;;;-14.90;79.81
44198;BME280;30157;55.512;37.764;2022-12-05T02:32:09;102889.56;;;-14.93;80.13
44198;BME280;30157;55.512;37.764;2022-12-05T02:37:28;102881.63;;;-14.90;80.63
44198;BME280;30157;55.512;37.764;2022-12-05T02:45:19;102807.19;;;-15.28;80.11
44198;BME280;30157;55.512;37.764;2022-12-05T02:47:51;102875.75;;;-14.85;80.38
44198;BME280;30157;55.512;37.764;2022-12-05T02:50:28;102851.09;;;-15.00;79.90
44198;BME280;30157;55.512;37.764;2022-12-05T02:52:59;102854.47;;;-15.00;79.88
44198;BME280;30157;55.512;37.764;2022-12-05T02:55:27;102849.94;;;-15.02;80.14
44198;BME280;30157;55.512;37.764;2022-12-05T02:57:57;102804.50;;;-15.35;79.60
44198;BME280;30157;55.512;37.764;2022-12-05T03:00:25;102850.19;;;-15.07;80.25
44198;BME280;30157;55.512;37.764;2022-12-05T03:02:55;102842.47;;;-15.02;80.58
44198;BME280;30157;55.512;37.764;2022-12-05T03:06:30;102769.66;;;-15.41;79.99
44198;BME280;30157;55.512;37.764;2022-12-05T03:08:28;102806.25;;;-15.17;79.32
44198;BME280;30157;55.512;37.764;2022-12-05T03:10:57;102855.81;;;-14.91;79.81
44198;BME280;30157;55.512;37.764;2022-12-05T03:13:38;102851.28;;;-14.93;79.83
44198;BME280;30157;55.512;37.764;2022-12-05T03:16:11;102833.63;;;-15.00;79.13
44198;BME280;30157;55.512;37.764;2022-12-05T03:18:44;102820.97;;;-15.13;79.40
44198;BME280;30157;55.512;37.764;2022-12-05T03:23:59;102770.56;;;-15.58;80.23
44198;BME280;30157;55.512;37.764;2022-12-05T03:29:28;102842.50;;;-15.08;80.10
44198;BME280;30157;55.512;37.764;2022-12-05T03:37:17;102780.03;;;-15.49;80.20
44198;BME280;30157;55.512;37.764;2022-12-05T03:39:48;102845.22;;;-15.12;80.13
44198;BME280;30157;55.512;37.764;2022-12-05T03:42:25;102705.25;;;-15.91;79.87
44198;BME280;30157;55.512;37.764;2022-12-05T03:44:56;102785.03;;;-15.44;79.98
44198;BME280;30157;55.512;37.764;2022-12-05T03:50:00;102831.44;;;-15.33;80.52
44198;BME280;30157;55.512;37.764;2022-12-05T03:52:47;102839.13;;;-15.20;80.52
44198;BME280;30157;55.512;37.764;2022-12-05T03:55:16;102836.41;;;-15.27;80.99
44198;BME280;30157;55.512;37.764;2022-12-05T03:57:48;102796.09;;;-15.36;79.94
44198;BME280;30157;55.512;37.764;2022-12-05T04:00:18;102733.22;;;-15.69;79.99
44198;BME280;30157;55.512;37.764;2022-12-05T04:05:26;102749.97;;;-15.57;79.70
44198;BME280;30157;55.512;37.764;2022-12-05T04:08:22;102819.41;;;-15.13;80.09
44198;BME280;30157;55.512;37.764;2022-12-05T04:10:51;102812.16;;;-15.17;79.43
44198;BME280;30157;55.512;37.764;2022-12-05T04:13:44;102777.13;;;-15.41;79.61
44198;BME280;30157;55.512;37.764;2022-12-05T04:16:09;102735.50;;;-15.65;80.02
44198;BME280;30157;55.512;37.764;2022-12-05T04:18:59;102795.63;;;-15.22;80.09
44198;BME280;30157;55.512;37.764;2022-12-05T04:21:33;102805.81;;;-15.21;80.12
44198;BME280;30157;55.512;37.764;2022-12-05T04:24:09;102807.63;;;-15.25;80.38
44198;BME280;30157;55.512;37.764;2022-12-05T04:29:51;102800.16;;;-15.31;80.28
44198;BME280;30157;55.512;37.764;2022-12-05T04:32:23;102781.16;;;-15.42;80.12
44198;BME280;30157;55.512;37.764;2022-12-05T04:34:54;102795.66;;;-15.33;80.36
44198;BME280;30157;55.512;37.764;2022-12-05T04:37:23;102782.97;;;-15.35;80.81
44198;BME280;30157;55.512;37.764;2022-12-05T04:39:58;102756.53;;;-15.57;80.54
44198;BME280;30157;55.512;37.764;2022-12-05T04:42:27;102776.88;;;-15.37;80.40
44198;BME280;30157;55.512;37.764;2022-12-05T04:45:02;102757.19;;;-15.41;80.22
44198;BME280;30157;55.512;37.764;2022-12-05T04:47:35;102771.88;;;-15.31;79.98
44198;BME280;30157;55.512;37.764;2022-12-05T04:50:02;102773.47;;;-15.38;79.89
44198;BME280;30157;55.512;37.764;2022-12-05T04:52:29;102777.53;;;-15.32;79.49
44198;BME280;30157;55.512;37.764;2022-12-05T04:55:10;102777.06;;;-15.30;79.49
44198;BME280;30157;55.512;37.764;2022-12-05T04:57:48;102765.78;;;-15.39;79.85
44198;BME280;30157;55.512;37.764;2022-12-05T05:00:17;102777.75;;;-15.31;79.94
44198;BME280;30157;55.512;37.764;2022-12-05T05:02:54;102780.03;;;-15.38;79.77
44198;BME280;30157;55.512;37.764;2022-12-05T05:05:22;102734.59;;;-15.71;80.15
44198;BME280;30157;55.512;37.764;2022-12-05T05:07:50;102762.41;;;-15.57;80.18
44198;BME280;30157;55.512;37.764;2022-12-05T05:10:26;102765.78;;;-15.56;80.30
44198;BME280;30157;55.512;37.764;2022-12-05T05:12:55;102772.59;;;-15.55;80.14
44198;BME280;30157;55.512;37.764;2022-12-05T05:15:21;102781.19;;;-15.47;79.93
44198;BME280;30157;55.512;37.764;2022-12-05T05:17:46;102780.28;;;-15.42;80.40
44198;BME280;30157;55.512;37.764;2022-12-05T05:20:12;102779.59;;;-15.41;80.64
44198;BME280;30157;55.512;37.764;2022-12-05T05:22:55;102723.28;;;-15.69;80.15
44198;BME280;30157;55.512;37.764;2022-12-05T05:25:22;102780.47;;;-15.35;79.98
44198;BME280;30157;55.512;37.764;2022-12-05T05:27:49;102777.78;;;-15.36;80.03
44198;BME280;30157;55.512;37.764;2022-12-05T05:30:17;102759.44;;;-15.43;80.23
44198;BME280;30157;55.512;37.764;2022-12-05T05:32:43;102751.06;;;-15.43;80.38
44198;BME280;30157;55.512;37.764;2022-12-05T05:35:09;102701.56;;;-15.76;80.20
44198;BME280;30157;55.512;37.764;2022-12-05T05:37:36;102775.94;;;-15.26;80.46
44198;BME280;30157;55.512;37.764;2022-12-05T05:40:11;102768.00;;;-15.24;80.17
44198;BME280;30157;55.512;37.764;2022-12-05T05:42:52;102772.06;;;-15.24;80.19
44198;BME280;30157;55.512;37.764;2022-12-05T05:45:18;102753.97;;;-15.34;79.84
44198;BME280;30157;55.512;37.764;2022-12-05T05:47:44;102766.44;;;-15.34;79.35
44198;BME280;30157;55.512;37.764;2022-12-05T05:50:11;102758.50;;;-15.32;79.23
44198;BME280;30157;55.512;37.764;2022-12-05T05:52:37;102737.25;;;-15.41;79.60
44198;BME280;30157;55.512;37.764;2022-12-05T05:55:07;102737.00;;;-15.43;79.51
44198;BME280;30157;55.512;37.764;2022-12-05T05:57:34;102678.47;;;-15.69;79.23
44198;BME280;30157;55.512;37.764;2022-12-05T06:00:00;102753.44;;;-15.09;79.09
44198;BME280;30157;55.512;37.764;2022-12-05T06:02:31;102759.31;;;-15.03;78.69
44198;BME280;30157;55.512;37.764;2022-12-05T06:04:57;102728.38;;;-14.75;79.24
44198;BME280;30157;55.512;37.764;2022-12-05T06:07:22;102748.59;;;-13.65;76.96
44198;BME280;30157;55.512;37.764;2022-12-05T06:09:48;102737.44;;;-13.06;75.89
44198;BME280;30157;55.512;37.764;2022-12-05T06:12:14;102728.75;;;-13.58;74.27
44198;BME280;30157;55.512;37.764;2022-12-05T06:14:39;102719.75;;;-13.88;74.73
44198;BME280;30157;55.512;37.764;2022-12-05T06:17:05;102750.22;;;-13.29;75.58
44198;BME280;30157;55.512;37.764;2022-12-05T06:19:31;102749.41;;;-12.04;73.79
44198;BME280;30157;55.512;37.764;2022-12-05T06:21:56;102661.88;;;-11.63;69.83
44198;BME280;30157;55.512;37.764;2022-12-05T06:24:22;102738.44;;;-10.41;68.84
44198;BME280;30157;55.512;37.764;2022-12-05T06:26:48;102708.34;;;-10.06;66.22
44198;BME280;30157;55.512;37.764;2022-12-05T06:29:13;102734.88;;;-9.54;65.00
44198;BME280;30157;55.512;37.764;2022-12-05T06:31:40;102736.34;;;-9.07;65.69
44198;BME280;30157;55.512;37.764;2022-12-05T06:34:06;102737.69;;;-8.46;64.59
44198;BME280;30157;55.512;37.764;2022-12-05T06:36:31;102735.16;;;-8.31;61.25
44198;BME280;30157;55.512;37.764;2022-12-05T06:38:57;102717.81;;;-7.78;61.50
44198;BME280;30157;55.512;37.764;2022-12-05T06:41:25;102728.94;;;-7.61;60.55
44198;BME280;30157;55.512;37.764;2022-12-05T06:43:55;102648.56;;;-7.58;58.87
44198;BME280;30157;55.512;37.764;2022-12-05T06:46:23;102727.00;;;-6.88;58.73
44198;BME280;30157;55.512;37.764;2022-12-05T06:48:55;102727.56;;;-6.37;56.67
44198;BME280;30157;55.512;37.764;2022-12-05T06:51:21;102660.72;;;-6.32;55.69
44198;BME280;30157;55.512;37.764;2022-12-05T06:53:48;102661.41;;;-6.49;54.74
44198;BME280;30157;55.512;37.764;2022-12-05T06:56:16;102712.22;;;-6.16;54.13
44198;BME280;30157;55.512;37.764;2022-12-05T06:58:44;102704.28;;;-6.58;54.25
44198;BME280;30157;55.512;37.764;2022-12-05T07:01:15;102706.78;;;-6.35;55.08
44198;BME280;30157;55.512;37.764;2022-12-05T07:04:00;102708.81;;;-6.16;53.38
44198;BME280;30157;55.512;37.764;2022-12-05T07:06:26;102655.63;;;-6.48;52.49
44198;BME280;30157;55.512;37.764;2022-12-05T07:08:52;102686.94;;;-5.84;52.92
44198;BME280;30157;55.512;37.764;2022-12-05T07:11:18;102719.50;;;-5.71;51.31
44198;BME280;30157;55.512;37.764;2022-12-05T07:13:44;102695.88;;;-5.15;52.47
44198;BME280;30157;55.512;37.764;2022-12-05T07:16:10;102687.94;;;-4.44;50.85
44198;BME280;30157;55.512;37.764;2022-12-05T07:18:36;102701.97;;;-3.96;49.91
44198;BME280;30157;55.512;37.764;2022-12-05T07:21:07;102701.75;;;-3.56;45.67
44198;BME280;30157;55.512;37.764;2022-12-05T07:23:34;102701.44;;;-3.76;47.93
44198;BME280;30157;55.512;37.764;2022-12-05T07:26:07;102676.66;;;-3.26;46.78
44198;BME280;30157;55.512;37.764;2022-12-05T07:28:33;102678.41;;;-2.99;46.79
44198;BME280;30157;55.512;37.764;2022-12-05T07:31:07;102687.38;;;-2.94;46.24
44198;BME280;30157;55.512;37.764;2022-12-05T07:33:34;102680.06;;;-2.91;45.61
44198;BME280;30157;55.512;37.764;2022-12-05T07:36:01;102690.47;;;-2.70;46.01
44198;BME280;30157;55.512;37.764;2022-12-05T07:38:27;102648.22;;;-4.18;42.48
44198;BME280;30157;55.512;37.764;2022-12-05T07:41:02;102697.47;;;-4.08;46.84
44198;BME280;30157;55.512;37.764;2022-12-05T07:43:28;102694.44;;;-5.77;48.32
44198;BME280;30157;55.512;37.764;2022-12-05T07:45:55;102622.66;;;-7.64;50.94
44198;BME280;30157;55.512;37.764;2022-12-05T07:48:20;102702.25;;;-8.47;54.67
44198;BME280;30157;55.512;37.764;2022-12-05T07:50:46;102697.94;;;-8.55;55.52
44198;BME280;30157;55.512;37.764;2022-12-05T07:53:12;102690.53;;;-8.83;55.82
44198;BME280;30157;55.512;37.764;2022-12-05T07:55:38;102642.13;;;-10.41;58.99
44198;BME280;30157;55.512;37.764;2022-12-05T07:58:03;102683.38;;;-10.12;59.52
44198;BME280;30157;55.512;37.764;2022-12-05T08:00:29;102690.38;;;-8.77;57.72
44198;BME280;30157;55.512;37.764;2022-12-05T08:02:55;102665.50;;;-7.50;54.89
44198;BME280;30157;55.512;37.764;2022-12-05T08:05:21;102684.72;;;-7.05;52.16
44198;BME280;30157;55.512;37.764;2022-12-05T08:07:47;102664.78;;;-6.42;52.90
44198;BME280;30157;55.512;37.764;2022-12-05T08:10:13;102668.66;;;-6.13;49.04
44198;BME280;30157;55.512;37.764;2022-12-05T08:12:38;102674.13;;;-6.87;51.81
44198;BME280;30157;55.512;37.764;2022-12-05T08:15:05;102559.91;;;-9.66;56.17
44198;BME280;30157;55.512;37.764;2022-12-05T08:17:31;102585.91;;;-10.76;59.61
44198;BME280;30157;55.512;37.764;2022-12-05T08:20:00;102666.47;;;-10.20;60.55
44198;BME280;30157;55.512;37.764;2022-12-05T08:22:28;102671.88;;;-10.44;61.65
44198;BME280;30157;55.512;37.764;2022-12-05T08:24:54;102662.06;;;-10.28;61.87
44198;BME280;30157;55.512;37.764;2022-12-05T08:27:20;102644.06;;;-10.11;61.54
44198;BME280;30157;55.512;37.764;2022-12-05T08:29:45;102513.50;;;-11.01;62.16
44198;BME280;30157;55.512;37.764;2022-12-05T08:32:11;102651.84;;;-10.30;63.10
44198;BME280;30157;55.512;37.764;2022-12-05T08:34:37;102648.69;;;-9.87;62.46
44198;BME280;30157;55.512;37.764;2022-12-05T08:37:02;102564.13;;;-10.36;62.00
44198;BME280;30157;55.512;37.764;2022-12-05T08:39:28;102637.66;;;-9.68;61.69
44198;BME280;30157;55.512;37.764;2022-12-05T08:41:54;102622.22;;;-9.64;61.76
44198;BME280;30157;55.512;37.764;2022-12-05T08:44:20;102642.09;;;-9.72;62.21
44198;BME280;30157;55.512;37.764;2022-12-05T08:46:47;102636.91;;;-10.08;62.20
44198;BME280;30157;55.512;37.764;2022-12-05T08:49:13;102553.00;;;-10.65;62.43
44198;BME280;30157;55.512;37.764;2022-12-05T08:51:40;102639.59;;;-10.41;63.68
44198;BME280;30157;55.512;37.764;2022-12-05T08:54:06;102621.03;;;-10.56;64.11
44198;BME280;30157;55.512;37.764;2022-12-05T08:56:32;102628.38;;;-10.58;64.07
44198;BME280;30157;55.512;37.764;2022-12-05T08:58:59;102614.91;;;-10.58;64.54
44198;BME280;30157;55.512;37.764;2022-12-05T09:01:26;102602.69;;;-10.62;64.46
44198;BME280;30157;55.512;37.764;2022-12-05T09:03:59;102607.38;;;-10.58;64.86
44198;BME280;30157;55.512;37.764;2022-12-05T09:06:27;102616.66;;;-10.37;64.90
44198;BME280;30157;55.512;37.764;2022-12-05T09:08:56;102572.59;;;-10.21;64.71
44198;BME280;30157;55.512;37.764;2022-12-05T09:11:25;102558.78;;;-9.75;64.33
44198;BME280;30157;55.512;37.764;2022-12-05T09:13:53;102571.59;;;-9.59;62.19
44198;BME280;30157;55.512;37.764;2022-12-05T09:16:23;102590.88;;;-9.31;62.08
44198;BME280;30157;55.512;37.764;2022-12-05T09:18:49;102531.84;;;-9.69;62.18
44198;BME280;30157;55.512;37.764;2022-12-05T09:21:33;102592.00;;;-9.00;61.01
44198;BME280;30157;55.512;37.764;2022-12-05T09:24:00;102540.34;;;-9.54;61.16
44198;BME280;30157;55.512;37.764;2022-12-05T09:26:26;102575.78;;;-9.31;61.93
44198;BME280;30157;55.512;37.764;2022-12-05T09:28:53;102588.03;;;-8.98;61.53
44198;BME280;30157;55.512;37.764;2022-12-05T09:31:21;102584.09;;;-8.96;61.25
44198;BME280;30157;55.512;37.764;2022-12-05T09:33:48;102515.41;;;-9.31;60.61
44198;BME280;30157;55.512;37.764;2022-12-05T09:36:17;102573.78;;;-9.26;61.16
44198;BME280;30157;55.512;37.764;2022-12-05T09:38:44;102564.78;;;-9.39;61.39
44198;BME280;30157;55.512;37.764;2022-12-05T09:47:15;102574.88;;;-9.10;61.15
44198;BME280;30157;55.512;37.764;2022-12-05T09:49:51;102391.59;;;-10.08;61.08
44198;BME280;30157;55.512;37.764;2022-12-05T09:52:28;102572.00;;;-9.13;60.77
44198;BME280;30157;55.512;37.764;2022-12-05T09:55:00;102490.22;;;-9.38;60.33
44198;BME280;30157;55.512;37.764;2022-12-05T09:57:43;102552.44;;;-9.08;60.07
44198;BME280;30157;55.512;37.764;2022-12-05T10:00:10;102539.13;;;-8.93;60.26
44198;BME280;30157;55.512;37.764;2022-12-05T10:05:28;102498.84;;;-9.07;59.70
44198;BME280;30157;55.512;37.764;2022-12-05T10:15:56;102498.13;;;-9.42;60.08
44198;BME280;30157;55.512;37.764;2022-12-05T10:18:39;102540.75;;;-9.37;60.58
44198;BME280;30157;55.512;37.764;2022-12-05T10:24:05;102539.47;;;-9.40;60.91
44198;BME280;30157;55.512;37.764;2022-12-05T10:26:49;102534.22;;;-9.64;61.86
44198;BME280;30157;55.512;37.764;2022-12-05T10:31:46;102527.22;;;-9.66;61.70
44198;BME280;30157;55.512;37.764;2022-12-05T10:34:18;102456.03;;;-10.01;61.92
44198;BME280;30157;55.512;37.764;2022-12-05T10:36:56;102518.59;;;-9.61;61.50
44198;BME280;30157;55.512;37.764;2022-12-05T10:39:26;102471.47;;;-9.91;61.55
44198;BME280;30157;55.512;37.764;2022-12-05T10:41:52;102526.53;;;-9.36;61.58
44198;BME280;30157;55.512;37.764;2022-12-05T10:44:18;102533.00;;;-9.31;60.87
44198;BME280;30157;55.512;37.764;2022-12-05T10:46:44;102522.53;;;-9.56;61.05
44198;BME280;30157;55.512;37.764;2022-12-05T10:49:11;102440.97;;;-9.87;61.33
44198;BME280;30157;55.512;37.764;2022-12-05T10:51:37;102519.88;;;-9.50;61.36
44198;BME280;30157;55.512;37.764;2022-12-05T10:54:14;102517.19;;;-9.44;61.47
44198;BME280;30157;55.512;37.764;2022-12-05T10:56:42;102520.41;;;-9.38;61.41
44198;BME280;30157;55.512;37.764;2022-12-05T10:59:12;102351.00;;;-10.25;61.21
44198;BME280;30157;55.512;37.764;2022-12-05T11:01:44;102515.91;;;-9.41;61.38
44198;BME280;30157;55.512;37.764;2022-12-05T11:04:41;102513.22;;;-9.57;61.66
44198;BME280;30157;55.512;37.764;2022-12-05T11:09:53;102265.28;;;-11.06;62.48
44198;BME280;30157;55.512;37.764;2022-12-05T11:17:47;102481.50;;;-9.98;63.36
44198;BME280;30157;55.512;37.764;2022-12-05T11:22:43;102498.75;;;-9.94;63.65
44198;BME280;30157;55.512;37.764;2022-12-05T11:27:58;102475.78;;;-9.97;64.12
44198;BME280;30157;55.512;37.764;2022-12-05T11:30:26;102474.16;;;-9.97;64.10
44198;BME280;30157;55.512;37.764;2022-12-05T11:33:18;102428.69;;;-10.20;64.45
44198;BME280;30157;55.512;37.764;2022-12-05T11:35:51;102489.94;;;-10.05;64.77
44198;BME280;30157;55.512;37.764;2022-12-05T11:38:20;102465.91;;;-9.96;64.77
44198;BME280;30157;55.512;37.764;2022-12-05T11:57:54;102396.94;;;-10.19;65.25
44198;BME280;30157;55.512;37.764;2022-12-05T12:00:35;102424.03;;;-10.17;66.15
44198;BME280;30157;55.512;37.764;2022-12-05T12:11:36;102432.13;;;-10.05;66.63
44198;BME280;30157;55.512;37.764;2022-12-05T12:17:46;102451.88;;;-10.01;66.45
44198;BME280;30157;55.512;37.764;2022-12-05T12:28:09;102436.94;;;-10.28;68.13
44198;BME280;30157;55.512;37.764;2022-12-05T12:31:17;102431.91;;;-10.21;67.84
44198;BME280;30157;55.512;37.764;2022-12-05T12:36:35;102425.31;;;-10.13;67.82
44198;BME280;30157;55.512;37.764;2022-12-05T12:42:01;102418.31;;;-10.08;68.10
44198;BME280;30157;55.512;37.764;2022-12-05T12:50:13;102348.06;;;-10.57;68.53
44198;BME280;30157;55.512;37.764;2022-12-05T12:53:08;102407.31;;;-10.31;69.01
44198;BME280;30157;55.512;37.764;2022-12-05T12:55:55;102398.69;;;-10.33;69.26
44198;BME280;30157;55.512;37.764;2022-12-05T13:03:48;102396.72;;;-10.42;69.74
44198;BME280;30157;55.512;37.764;2022-12-05T13:06:17;102387.38;;;-10.51;70.51
44198;BME280;30157;55.512;37.764;2022-12-05T13:08:58;102371.22;;;-10.53;69.87
44198;BME280;30157;55.512;37.764;2022-12-05T13:11:32;102384.88;;;-10.51;69.91
44198;BME280;30157;55.512;37.764;2022-12-05T13:14:00;102379.44;;;-10.61;70.34
44198;BME280;30157;55.512;37.764;2022-12-05T13:16:33;102335.63;;;-10.77;70.24
44198;BME280;30157;55.512;37.764;2022-12-05T13:19:01;102364.38;;;-10.61;70.06
44198;BME280;30157;55.512;37.764;2022-12-05T13:21:27;102378.03;;;-10.52;70.21
44198;BME280;30157;55.512;37.764;2022-12-05T13:23:56;102174.91;;;-11.77;70.13
44198;BME280;30157;55.512;37.764;2022-12-05T13:26:29;102307.03;;;-11.07;70.79
44198;BME280;30157;55.512;37.764;2022-12-05T13:28:58;102372.44;;;-10.64;70.73
44198;BME280;30157;55.512;37.764;2022-12-05T13:31:37;102307.59;;;-10.95;70.40
44198;BME280;30157;55.512;37.764;2022-12-05T13:34:04;102279.59;;;-11.12;70.62
44198;BME280;30157;55.512;37.764;2022-12-05T13:36:38;102366.19;;;-10.60;70.40
44198;BME280;30157;55.512;37.764;2022-12-05T13:39:24;102338.38;;;-10.69;70.59
44198;BME280;30157;55.512;37.764;2022-12-05T13:42:25;102376.56;;;-10.57;71.18
44198;BME280;30157;55.512;37.764;2022-12-05T13:44:57;102349.84;;;-10.64;70.77
44198;BME280;30157;55.512;37.764;2022-12-05T13:50:19;102301.19;;;-10.93;71.11
44198;BME280;30157;55.512;37.764;2022-12-05T13:52:49;102356.47;;;-10.64;71.32
44198;BME280;30157;55.512;37.764;2022-12-05T13:55:38;102342.13;;;-10.72;71.61
44198;BME280;30157;55.512;37.764;2022-12-05T14:09:28;102355.97;;;-10.61;71.76
44198;BME280;30157;55.512;37.764;2022-12-05T14:17:46;102282.16;;;-10.98;71.95
44198;BME280;30157;55.512;37.764;2022-12-05T14:29:27;102342.13;;;-10.65;72.57
44198;BME280;30157;55.512;37.764;2022-12-05T14:32:35;102329.75;;;-10.64;72.42
44198;BME280;30157;55.512;37.764;2022-12-05T14:37:51;102256.41;;;-11.24;72.88
44198;BME280;30157;55.512;37.764;2022-12-05T14:40:33;102192.34;;;-11.57;72.32
44198;BME280;30157;55.512;37.764;2022-12-05T14:43:03;102321.28;;;-10.78;73.09
44198;BME280;30157;55.512;37.764;2022-12-05T14:45:40;102332.25;;;-10.71;72.37
44198;BME280;30157;55.512;37.764;2022-12-05T14:50:44;102303.75;;;-10.71;72.70
44198;BME280;30157;55.512;37.764;2022-12-05T14:55:42;102304.28;;;-10.74;72.67
44198;BME280;30157;55.512;37.764;2022-12-05T14:58:17;102286.50;;;-10.83;72.58
44198;BME280;30157;55.512;37.764;2022-12-05T15:00:45;102305.69;;;-10.76;72.74
44198;BME280;30157;55.512;37.764;2022-12-05T15:03:24;102294.72;;;-10.91;73.17
44198;BME280;30157;55.512;37.764;2022-12-05T15:05:52;102275.69;;;-11.03;73.34
44198;BME280;30157;55.512;37.764;2022-12-05T15:08:19;102230.31;;;-11.19;73.19
44198;BME280;30157;55.512;37.764;2022-12-05T15:10:46;102225.22;;;-11.34;73.30
44198;BME280;30157;55.512;37.764;2022-12-05T15:13:20;102283.06;;;-10.90;73.14
44198;BME280;30157;55.512;37.764;2022-12-05T15:16:06;102292.44;;;-10.82;73.16
44198;BME280;30157;55.512;37.764;2022-12-05T15:18:37;102276.81;;;-10.87;72.97
44198;BME280;30157;55.512;37.764;2022-12-05T15:21:39;102292.78;;;-10.86;73.09
44198;BME280;30157;55.512;37.764;2022-12-05T15:24:15;102291.88;;;-10.87;72.95
44198;BME280;30157;55.512;37.764;2022-12-05T15:31:58;102276.09;;;-10.93;72.94
44198;BME280;30157;55.512;37.764;2022-12-05T15:37:15;102268.88;;;-11.04;73.56
44198;BME280;30157;55.512;37.764;2022-12-05T15:42:27;102264.72;;;-11.11;73.68